Time,TemperatureF,DewpointF,PressureIn,WindDirection,WindDirectionDegrees,WindSpeedMPH,WindSpeedGustMPH,Humidity,HourlyPrecipIn,Conditions,Clouds,dailyrainin,SoftwareType,DateUTC
2013-01-19 00:02:00,30.6,28.8,30.46,SE,134,0.0,0.0,93,0.00,,,0.00,Wunderground v.1.15,2013-01-19 05:02:00,
2013-01-19 00:04:00,30.7,28.9,30.46,SE,134,0.0,0.0,93,0.00,,,0.00,Wunderground v.1.15,2013-01-19 05:04:00,
2013-01-19 00:09:00,30.9,29.1,30.46,SE,134,0.0,0.0,93,0.00,,,0.00,Wunderground v.1.15,2013-01-19 05:09:00,
2013-01-19 00:13:00,31.2,29.7,30.45,SE,134,0.0,0.0,94,0.00,,,0.00,Wunderground v.1.15,2013-01-19 05:13:00,
2013-01-19 00:14:00,31.2,29.7,30.45,SE,134,0.0,0.0,94,0.00,,,0.00,Wunderground v.1.15,2013-01-19 05:14:00,
2013-01-19 00:19:00,30.8,28.8,30.45,SE,134,0.0,0.0,92,0.00,,,0.00,Wunderground v.1.15,2013-01-19 05:19:00,
2013-01-19 00:25:00,30.4,28.4,30.46,SE,134,0.0,0.0,92,0.00,,,0.00,Wunderground v.1.15,2013-01-19 05:25:00,
2013-01-19 00:30:00,30.0,28.0,30.45,SE,134,0.0,0.0,92,0.00,,,0.00,Wunderground v.1.15,2013-01-19 05:30:00,
2013-01-19 00:35:00,29.7,27.4,30.46,SE,134,0.0,0.0,91,0.00,,,0.00,Wunderground v.1.15,2013-01-19 05:35:00,
2013-01-19 00:41:00,29.4,27.4,30.45,SE,134,0.0,0.0,92,0.00,,,0.00,Wunderground v.1.15,2013-01-19 05:41:00,
2013-01-19 00:46:00,29.3,27.3,30.45,SE,134,0.0,0.0,92,0.00,,,0.00,Wunderground v.1.15,2013-01-19 05:46:00,
2013-01-19 00:52:00,29.2,27.4,30.45,SE,134,0.0,0.0,93,0.00,,,0.00,Wunderground v.1.15,2013-01-19 05:52:00,
2013-01-19 00:58:00,29.7,28.2,30.45,SE,134,0.0,0.0,94,0.00,,,0.00,Wunderground v.1.15,2013-01-19 05:58:00,
2013-01-19 01:03:00,29.8,28.3,30.45,North,-999,0.0,0.0,94,0.00,,,-99.99,WeatherLink 6.0.0,2013-01-19 06:03:00,
2013-01-19 01:09:00,29.8,28.0,30.44,SE,134,0.0,0.0,93,0.00,,,0.00,Wunderground v.1.15,2013-01-19 06:09:00,
2013-01-19 01:14:00,29.5,27.5,30.44,SE,134,0.0,0.0,92,0.00,,,0.00,Wunderground v.1.15,2013-01-19 06:14:00,
2013-01-19 01:20:00,29.2,27.2,30.44,SE,134,0.0,0.0,92,0.00,,,0.00,Wunderground v.1.15,2013-01-19 06:20:00,
2013-01-19 01:26:00,28.9,26.9,30.44,SE,134,0.0,0.0,92,0.00,,,0.00,Wunderground v.1.15,2013-01-19 06:26:00,
2013-01-19 01:31:00,28.7,26.7,30.44,SE,134,0.0,0.0,92,0.00,,,0.00,Wunderground v.1.15,2013-01-19 06:31:00,
2013-01-19 01:37:00,28.7,26.7,30.44,SE,134,0.0,0.0,92,0.00,,,0.00,Wunderground v.1.15,2013-01-19 06:37:00,
2013-01-19 01:42:00,28.6,26.6,30.44,SE,134,0.0,0.0,92,0.00,,,0.00,Wunderground v.1.15,2013-01-19 06:42:00,
2013-01-19 01:48:00,29.1,27.6,30.44,SE,134,0.0,0.0,94,0.00,,,0.00,Wunderground v.1.15,2013-01-19 06:48:00,
2013-01-19 01:54:00,29.3,27.8,30.44,SE,134,0.0,0.0,94,0.00,,,0.00,Wunderground v.1.15,2013-01-19 06:54:00,
2013-01-19 01:59:00,29.1,27.6,30.43,SE,134,0.0,0.0,94,0.00,,,0.00,Wunderground v.1.15,2013-01-19 06:59:00,
2013-01-19 02:04:00,29.1,27.6,30.43,SE,134,0.0,0.0,94,0.00,,,0.00,Wunderground v.1.15,2013-01-19 07:04:00,
2013-01-19 02:09:00,28.9,27.1,30.43,SE,134,0.0,0.0,93,0.00,,,0.00,Wunderground v.1.15,2013-01-19 07:09:00,
2013-01-19 02:14:00,28.8,27.0,30.43,SE,134,0.0,0.0,93,0.00,,,0.00,Wunderground v.1.15,2013-01-19 07:14:00,
2013-01-19 02:20:00,28.7,26.9,30.43,SE,134,0.0,0.0,93,0.00,,,0.00,Wunderground v.1.15,2013-01-19 07:20:00,
2013-01-19 02:25:00,28.8,27.0,30.43,SE,134,0.0,0.0,93,0.00,,,0.00,Wunderground v.1.15,2013-01-19 07:25:00,
2013-01-19 02:30:00,28.9,27.1,30.43,SE,134,0.0,0.0,93,0.00,,,0.00,Wunderground v.1.15,2013-01-19 07:30:00,
2013-01-19 02:35:00,28.8,27.0,30.43,SE,134,0.0,0.0,93,0.00,,,0.00,Wunderground v.1.15,2013-01-19 07:35:00,
2013-01-19 02:40:00,29.0,27.5,30.43,SE,134,0.0,0.0,94,0.00,,,0.00,Wunderground v.1.15,2013-01-19 07:40:00,
2013-01-19 02:45:00,29.6,28.3,30.44,SE,134,0.0,0.0,95,0.00,,,0.00,Wunderground v.1.15,2013-01-19 07:45:00,
2013-01-19 02:50:00,29.2,27.7,30.44,SE,134,0.0,0.0,94,0.00,,,0.00,Wunderground v.1.15,2013-01-19 07:50:00,
2013-01-19 02:55:00,28.8,27.0,30.44,SE,134,0.0,0.0,93,0.00,,,0.00,Wunderground v.1.15,2013-01-19 07:55:00,
2013-01-19 03:00:00,28.4,26.6,30.44,SE,134,0.0,0.0,93,0.00,,,0.00,Wunderground v.1.15,2013-01-19 08:00:00,
2013-01-19 03:05:00,28.2,26.4,30.44,SE,134,0.0,0.0,93,0.00,,,0.00,Wunderground v.1.15,2013-01-19 08:05:00,
2013-01-19 03:10:00,27.8,26.0,30.44,SE,134,0.0,0.0,93,0.00,,,0.00,Wunderground v.1.15,2013-01-19 08:10:00,
2013-01-19 03:15:00,27.7,25.9,30.44,SE,134,0.0,0.0,93,0.00,,,0.00,Wunderground v.1.15,2013-01-19 08:15:00,
2013-01-19 03:20:00,27.6,25.8,30.45,SE,134,0.0,0.0,93,0.00,,,0.00,Wunderground v.1.15,2013-01-19 08:20:00,
2013-01-19 03:25:00,27.6,26.1,30.45,SE,134,0.0,0.0,94,0.00,,,0.00,Wunderground v.1.15,2013-01-19 08:25:00,
2013-01-19 03:30:00,28.5,27.3,30.45,SE,134,0.0,0.0,95,0.00,,,0.00,Wunderground v.1.15,2013-01-19 08:30:00,
2013-01-19 03:35:00,28.7,27.4,30.45,SE,134,0.0,0.0,95,0.00,,,0.00,Wunderground v.1.15,2013-01-19 08:35:00,
2013-01-19 03:40:00,28.7,27.4,30.44,SE,134,0.0,0.0,95,0.00,,,0.00,Wunderground v.1.15,2013-01-19 08:40:00,
2013-01-19 03:45:00,28.4,27.2,30.45,SE,134,0.0,0.0,95,0.00,,,0.00,Wunderground v.1.15,2013-01-19 08:45:00,
2013-01-19 03:50:00,28.1,26.6,30.45,SE,134,0.0,0.0,94,0.00,,,0.00,Wunderground v.1.15,2013-01-19 08:50:00,
2013-01-19 03:55:00,27.8,26.3,30.45,SE,134,0.0,0.0,94,0.00,,,0.00,Wunderground v.1.15,2013-01-19 08:55:00,
2013-01-19 04:00:00,27.6,26.1,30.45,SE,134,0.0,0.0,94,0.00,,,0.00,Wunderground v.1.15,2013-01-19 09:00:00,
2013-01-19 04:05:00,27.4,25.9,30.45,SE,134,0.0,0.0,94,0.00,,,0.00,Wunderground v.1.15,2013-01-19 09:05:00,
2013-01-19 04:10:00,27.2,25.7,30.45,SE,134,0.0,0.0,94,0.00,,,0.00,Wunderground v.1.15,2013-01-19 09:10:00,
2013-01-19 04:15:00,27.1,25.6,30.45,SE,134,0.0,0.0,94,0.00,,,0.00,Wunderground v.1.15,2013-01-19 09:15:00,
2013-01-19 04:20:00,27.0,25.5,30.45,SE,134,0.0,0.0,94,0.00,,,0.00,Wunderground v.1.15,2013-01-19 09:20:00,
2013-01-19 04:25:00,26.9,25.4,30.45,SE,134,0.0,0.0,94,0.00,,,0.00,Wunderground v.1.15,2013-01-19 09:25:00,
2013-01-19 04:30:00,26.8,25.3,30.44,SE,134,0.0,0.0,94,0.00,,,0.00,Wunderground v.1.15,2013-01-19 09:30:00,
2013-01-19 04:35:00,26.7,25.2,30.44,SE,134,0.0,0.0,94,0.00,,,0.00,Wunderground v.1.15,2013-01-19 09:35:00,
2013-01-19 04:40:00,27.6,26.4,30.44,SE,134,0.0,0.0,95,0.00,,,0.00,Wunderground v.1.15,2013-01-19 09:40:00,
2013-01-19 04:45:00,28.5,27.5,30.44,SE,134,0.0,0.0,96,0.00,,,0.00,Wunderground v.1.15,2013-01-19 09:45:00,
2013-01-19 04:51:00,28.0,26.8,30.44,SE,134,0.0,0.0,95,0.00,,,0.00,Wunderground v.1.15,2013-01-19 09:51:00,
2013-01-19 04:56:00,27.6,26.4,30.44,SE,134,0.0,0.0,95,0.00,,,0.00,Wunderground v.1.15,2013-01-19 09:56:00,
2013-01-19 05:01:00,27.9,26.7,30.45,SE,134,0.0,0.0,95,0.00,,,0.00,Wunderground v.1.15,2013-01-19 10:01:00,
2013-01-19 05:06:00,28.0,27.0,30.45,SE,134,0.0,0.0,96,0.00,,,0.00,Wunderground v.1.15,2013-01-19 10:06:00,
2013-01-19 05:11:00,27.4,26.2,30.44,SE,134,0.0,0.0,95,0.00,,,0.00,Wunderground v.1.15,2013-01-19 10:11:00,
2013-01-19 05:16:00,27.0,25.8,30.45,SE,134,0.0,0.0,95,0.00,,,0.00,Wunderground v.1.15,2013-01-19 10:16:00,
2013-01-19 05:21:00,27.0,25.8,30.45,SE,134,0.0,0.0,95,0.00,,,0.00,Wunderground v.1.15,2013-01-19 10:21:00,
2013-01-19 05:26:00,27.2,26.0,30.45,SE,134,1.0,1.0,95,0.00,,,0.00,Wunderground v.1.15,2013-01-19 10:26:00,
2013-01-19 05:31:00,27.2,26.0,30.45,SE,134,0.0,0.0,95,0.00,,,0.00,Wunderground v.1.15,2013-01-19 10:31:00,
2013-01-19 05:36:00,27.4,26.2,30.45,SE,134,0.0,1.0,95,0.00,,,0.00,Wunderground v.1.15,2013-01-19 10:36:00,
2013-01-19 05:41:00,27.3,26.1,30.45,SE,134,0.0,0.0,95,0.00,,,0.00,Wunderground v.1.15,2013-01-19 10:41:00,
2013-01-19 05:46:00,27.8,26.6,30.44,SE,134,0.0,1.0,95,0.00,,,0.00,Wunderground v.1.15,2013-01-19 10:46:00,
2013-01-19 05:51:00,28.1,27.1,30.44,SE,134,0.0,0.0,96,0.00,,,0.00,Wunderground v.1.15,2013-01-19 10:51:00,
2013-01-19 05:56:00,27.9,26.7,30.44,SE,134,0.0,0.0,95,0.00,,,0.00,Wunderground v.1.15,2013-01-19 10:56:00,
2013-01-19 06:01:00,27.6,26.4,30.44,SE,134,0.0,0.0,95,0.00,,,0.00,Wunderground v.1.15,2013-01-19 11:01:00,
2013-01-19 06:06:00,27.6,26.4,30.44,SE,134,0.0,0.0,95,0.00,,,0.00,Wunderground v.1.15,2013-01-19 11:06:00,
2013-01-19 06:11:00,27.6,26.4,30.44,SE,134,0.0,0.0,95,0.00,,,0.00,Wunderground v.1.15,2013-01-19 11:11:00,
2013-01-19 06:30:00,27.3,26.1,30.45,SE,135,0.0,1.0,95,0.00,,,-99.99,WeatherLink 6.0.0,2013-01-19 11:30:00,
2013-01-19 07:00:00,28.2,27.0,30.44,SE,135,0.0,1.0,95,0.00,,,-99.99,WeatherLink 6.0.0,2013-01-19 12:00:00,
2013-01-19 07:30:00,28.1,27.1,30.44,SE,135,0.0,1.0,96,0.00,,,-99.99,WeatherLink 6.0.0,2013-01-19 12:30:00,
2013-01-19 07:48:00,28.5,27.5,30.44,SE,134,0.0,0.0,96,0.00,,,0.00,Wunderground v.1.15,2013-01-19 12:48:00,
2013-01-19 07:53:00,28.3,27.3,30.44,SE,134,0.0,0.0,96,0.00,,,0.00,Wunderground v.1.15,2013-01-19 12:53:00,
2013-01-19 07:58:00,28.3,27.3,30.44,SE,134,0.0,0.0,96,0.00,,,0.00,Wunderground v.1.15,2013-01-19 12:58:00,
2013-01-19 08:04:00,28.1,27.1,30.44,North,-999,0.0,0.0,96,0.00,,,-99.99,WeatherLink 6.0.0,2013-01-19 13:04:00,
2013-01-19 08:09:00,27.4,26.2,30.44,SE,134,0.0,0.0,95,0.00,,,0.00,Wunderground v.1.15,2013-01-19 13:09:00,
2013-01-19 08:14:00,27.5,26.3,30.44,SE,134,0.0,1.0,95,0.00,,,0.00,Wunderground v.1.15,2013-01-19 13:14:00,
2013-01-19 08:19:00,28.3,27.3,30.44,SE,134,0.0,2.0,96,0.00,,,0.00,Wunderground v.1.15,2013-01-19 13:19:00,
2013-01-19 08:24:00,29.0,28.0,30.45,SE,134,0.0,0.0,96,0.00,,,0.00,Wunderground v.1.15,2013-01-19 13:24:00,
2013-01-19 08:29:00,29.8,28.8,30.44,SE,134,0.0,0.0,96,0.00,,,0.00,Wunderground v.1.15,2013-01-19 13:29:00,
2013-01-19 08:34:00,30.3,29.3,30.44,SE,134,0.0,0.0,96,0.00,,,0.00,Wunderground v.1.15,2013-01-19 13:34:00,
2013-01-19 08:39:00,31.7,30.7,30.44,SE,134,0.0,0.0,96,0.00,,,0.00,Wunderground v.1.15,2013-01-19 13:39:00,
2013-01-19 08:44:00,32.6,31.6,30.44,SE,134,0.0,0.0,96,0.00,,,0.00,Wunderground v.1.15,2013-01-19 13:44:00,
2013-01-19 08:49:00,33.5,32.5,30.43,SE,134,0.0,0.0,96,0.00,,,0.00,Wunderground v.1.15,2013-01-19 13:49:00,
2013-01-19 08:54:00,33.9,32.4,30.43,SE,134,0.0,0.0,94,0.00,,,0.00,Wunderground v.1.15,2013-01-19 13:54:00,
2013-01-19 08:59:00,34.0,31.6,30.43,SE,134,0.0,0.0,91,0.00,,,0.00,Wunderground v.1.15,2013-01-19 13:59:00,
2013-01-19 09:00:00,34.1,31.7,30.43,SE,135,0.0,1.0,91,0.00,,,-99.99,WeatherLink 6.0.0,2013-01-19 14:00:00,
2013-01-19 09:04:00,34.4,31.5,30.43,SE,134,0.0,0.0,89,0.00,,,0.00,Wunderground v.1.15,2013-01-19 14:04:00,
2013-01-19 09:09:00,34.8,31.9,30.43,SE,134,0.0,0.0,89,0.00,,,0.00,Wunderground v.1.15,2013-01-19 14:09:00,
2013-01-19 09:14:00,35.7,32.5,30.43,SE,134,0.0,1.0,88,0.00,,,0.00,Wunderground v.1.15,2013-01-19 14:14:00,
2013-01-19 09:19:00,36.5,32.1,30.43,SE,134,0.0,1.0,84,0.00,,,0.00,Wunderground v.1.15,2013-01-19 14:19:00,
2013-01-19 09:24:00,37.4,31.8,30.43,SE,134,0.0,1.0,80,0.00,,,0.00,Wunderground v.1.15,2013-01-19 14:24:00,
2013-01-19 09:29:00,38.3,33.3,30.43,SE,134,0.0,0.0,82,0.00,,,0.00,Wunderground v.1.15,2013-01-19 14:29:00,
2013-01-19 09:34:00,39.1,32.5,30.43,SE,134,0.0,1.0,77,0.00,,,0.00,Wunderground v.1.15,2013-01-19 14:34:00,
2013-01-19 09:40:00,39.8,32.8,30.42,SE,134,0.0,0.0,76,0.00,,,0.00,Wunderground v.1.15,2013-01-19 14:40:00,
2013-01-19 09:45:00,40.5,32.2,30.42,SE,134,0.0,1.0,72,0.00,,,0.00,Wunderground v.1.15,2013-01-19 14:45:00,
2013-01-19 09:50:00,41.2,32.5,30.42,SE,134,2.0,2.0,71,0.00,,,0.00,Wunderground v.1.15,2013-01-19 14:50:00,
2013-01-19 09:55:00,41.9,30.6,30.42,SE,134,2.0,2.0,64,0.00,,,0.00,Wunderground v.1.15,2013-01-19 14:55:00,
2013-01-19 10:00:00,42.0,29.9,30.43,South,186,0.0,1.0,62,0.00,,,0.00,Wunderground v.1.15,2013-01-19 15:00:00,
2013-01-19 10:05:00,42.0,29.5,30.42,South,181,0.0,2.0,61,0.00,,,0.00,Wunderground v.1.15,2013-01-19 15:05:00,
2013-01-19 10:10:00,42.4,29.9,30.42,SE,140,1.0,2.0,61,0.00,,,0.00,Wunderground v.1.15,2013-01-19 15:10:00,
2013-01-19 10:15:00,42.7,30.6,30.42,SE,140,0.0,2.0,62,0.00,,,0.00,Wunderground v.1.15,2013-01-19 15:15:00,
2013-01-19 10:20:00,42.4,29.1,30.42,South,173,0.0,1.0,59,0.00,,,0.00,Wunderground v.1.15,2013-01-19 15:20:00,
2013-01-19 10:25:00,42.7,31.7,30.42,South,169,0.0,1.0,65,0.00,,,0.00,Wunderground v.1.15,2013-01-19 15:25:00,
2013-01-19 10:30:00,42.7,29.4,30.41,NW,308,0.0,1.0,59,0.00,,,0.00,Wunderground v.1.15,2013-01-19 15:30:00,
2013-01-19 10:35:00,42.8,30.7,30.41,NW,308,0.0,1.0,62,0.00,,,0.00,Wunderground v.1.15,2013-01-19 15:35:00,
2013-01-19 10:40:00,43.0,32.4,30.41,NE,37,3.0,4.0,66,0.00,,,0.00,Wunderground v.1.15,2013-01-19 15:40:00,
2013-01-19 10:45:00,43.1,33.6,30.41,East,80,2.0,6.0,69,0.00,,,0.00,Wunderground v.1.15,2013-01-19 15:45:00,
2013-01-19 10:50:00,43.3,33.4,30.40,ENE,78,0.0,3.0,68,0.00,,,0.00,Wunderground v.1.15,2013-01-19 15:50:00,
2013-01-19 10:55:00,44.0,35.2,30.40,ENE,67,0.0,5.0,71,0.00,,,0.00,Wunderground v.1.15,2013-01-19 15:55:00,
2013-01-19 11:00:00,44.1,33.5,30.40,NE,34,1.0,6.0,66,0.00,,,0.00,Wunderground v.1.15,2013-01-19 16:00:00,
2013-01-19 11:05:00,43.9,34.0,30.39,ENE,59,0.0,6.0,68,0.00,,,0.00,Wunderground v.1.15,2013-01-19 16:05:00,
2013-01-19 11:10:00,44.3,33.7,30.39,NW,319,1.0,2.0,66,0.00,,,0.00,Wunderground v.1.15,2013-01-19 16:10:00,
2013-01-19 11:15:00,44.7,34.8,30.38,ENE,67,2.0,3.0,68,0.00,,,0.00,Wunderground v.1.15,2013-01-19 16:15:00,
2013-01-19 11:20:00,45.0,33.2,30.38,ESE,110,3.0,3.0,63,0.00,,,0.00,Wunderground v.1.15,2013-01-19 16:20:00,
2013-01-19 11:25:00,45.1,33.2,30.38,ESE,111,0.0,4.0,63,0.00,,,0.00,Wunderground v.1.15,2013-01-19 16:25:00,
2013-01-19 11:30:00,45.4,34.3,30.37,ESE,111,1.0,2.0,65,0.00,,,0.00,Wunderground v.1.15,2013-01-19 16:30:00,
2013-01-19 11:35:00,46.0,33.3,30.37,ESE,112,0.0,2.0,61,0.00,,,0.00,Wunderground v.1.15,2013-01-19 16:35:00,
2013-01-19 11:40:00,46.7,34.8,30.36,East,94,0.0,1.0,63,0.00,,,0.00,Wunderground v.1.15,2013-01-19 16:40:00,
2013-01-19 11:45:00,47.4,35.4,30.36,SE,130,3.0,5.0,63,0.00,,,0.00,Wunderground v.1.15,2013-01-19 16:45:00,
2013-01-19 11:50:00,47.1,33.9,30.35,ESE,121,6.0,7.0,60,0.00,,,0.00,Wunderground v.1.15,2013-01-19 16:50:00,
2013-01-19 11:55:00,47.7,34.5,30.35,ESE,117,4.0,7.0,60,0.00,,,0.00,Wunderground v.1.15,2013-01-19 16:55:00,
2013-01-19 12:00:00,48.1,34.4,30.34,South,175,2.0,3.0,59,0.00,,,0.00,Wunderground v.1.15,2013-01-19 17:00:00,
2013-01-19 12:05:00,48.6,34.9,30.34,SE,132,7.0,7.0,59,0.00,,,0.00,Wunderground v.1.15,2013-01-19 17:05:00,
2013-01-19 12:11:00,49.7,35.1,30.33,SE,138,3.0,4.0,57,0.00,,,0.00,Wunderground v.1.15,2013-01-19 17:11:00,
2013-01-19 12:17:00,49.7,33.2,30.32,SW,227,0.0,4.0,53,0.00,,,0.00,Wunderground v.1.15,2013-01-19 17:17:00,
2013-01-19 12:23:00,50.2,34.2,30.31,SE,144,1.0,5.0,54,0.00,,,0.00,Wunderground v.1.15,2013-01-19 17:23:00,
2013-01-19 12:28:00,50.8,33.8,30.31,South,169,3.0,5.0,52,0.00,,,0.00,Wunderground v.1.15,2013-01-19 17:28:00,
2013-01-19 12:33:00,50.9,33.4,30.30,WSW,238,2.0,3.0,51,0.00,,,0.00,Wunderground v.1.15,2013-01-19 17:33:00,
2013-01-19 12:38:00,51.2,34.6,30.30,SSE,156,0.0,3.0,53,0.00,,,0.00,Wunderground v.1.15,2013-01-19 17:38:00,
2013-01-19 12:43:00,51.7,33.6,30.29,South,175,3.0,8.0,50,0.00,,,0.00,Wunderground v.1.15,2013-01-19 17:43:00,
2013-01-19 12:48:00,51.7,34.1,30.28,SE,138,9.0,9.0,51,0.00,,,0.00,Wunderground v.1.15,2013-01-19 17:48:00,
2013-01-19 12:54:00,51.3,32.8,30.29,South,188,2.0,5.0,49,0.00,,,0.00,Wunderground v.1.15,2013-01-19 17:54:00,
2013-01-19 12:59:00,51.1,33.6,30.28,SSE,157,3.0,7.0,51,0.00,,,0.00,Wunderground v.1.15,2013-01-19 17:59:00,
2013-01-19 13:04:00,51.1,33.1,30.27,SW,227,0.0,7.0,50,0.00,,,0.00,Wunderground v.1.15,2013-01-19 18:04:00,
2013-01-19 13:09:00,51.8,33.7,30.27,SW,233,2.0,7.0,50,0.00,,,0.00,Wunderground v.1.15,2013-01-19 18:09:00,
2013-01-19 13:14:00,52.2,34.1,30.27,South,175,1.0,6.0,50,0.00,,,0.00,Wunderground v.1.15,2013-01-19 18:14:00,
2013-01-19 13:19:00,52.5,33.9,30.27,SSE,161,0.0,6.0,49,0.00,,,0.00,Wunderground v.1.15,2013-01-19 18:19:00,
2013-01-19 13:24:00,53.0,34.3,30.26,SSW,200,2.0,5.0,49,0.00,,,0.00,Wunderground v.1.15,2013-01-19 18:24:00,
2013-01-19 13:29:00,52.7,34.1,30.26,SSW,195,9.0,9.0,49,0.00,,,0.00,Wunderground v.1.15,2013-01-19 18:29:00,
2013-01-19 13:35:00,52.5,34.4,30.26,SSE,164,10.0,10.0,50,0.00,,,0.00,Wunderground v.1.15,2013-01-19 18:35:00,
2013-01-19 13:40:00,52.8,34.2,30.25,SSW,213,1.0,4.0,49,0.00,,,0.00,Wunderground v.1.15,2013-01-19 18:40:00,
2013-01-19 13:45:00,53.4,34.7,30.25,SSE,149,0.0,6.0,49,0.00,,,0.00,Wunderground v.1.15,2013-01-19 18:45:00,
2013-01-19 13:51:00,54.2,33.9,30.25,South,185,2.0,2.0,46,0.00,,,0.00,Wunderground v.1.15,2013-01-19 18:51:00,
2013-01-19 13:56:00,54.6,36.3,30.24,SW,215,0.0,5.0,50,0.00,,,0.00,Wunderground v.1.15,2013-01-19 18:56:00,
2013-01-19 14:00:00,54.9,33.9,30.24,SSW,202,2.0,10.0,45,0.00,,,-99.99,WeatherLink 6.0.0,2013-01-19 19:00:00,
2013-01-19 14:01:00,54.9,33.9,30.24,South,188,0.0,3.0,45,0.00,,,0.00,Wunderground v.1.15,2013-01-19 19:01:00,
2013-01-19 14:06:00,54.1,32.6,30.24,SSW,203,3.0,10.0,44,0.00,,,0.00,Wunderground v.1.15,2013-01-19 19:06:00,
2013-01-19 14:11:00,53.5,33.2,30.24,SE,130,8.0,8.0,46,0.00,,,0.00,Wunderground v.1.15,2013-01-19 19:11:00,
2013-01-19 14:17:00,53.6,33.8,30.23,South,171,4.0,8.0,47,0.00,,,0.00,Wunderground v.1.15,2013-01-19 19:17:00,
2013-01-19 14:22:00,54.0,34.2,30.23,SE,145,1.0,4.0,47,0.00,,,0.00,Wunderground v.1.15,2013-01-19 19:22:00,
2013-01-19 14:27:00,54.2,33.3,30.23,SSE,163,4.0,5.0,45,0.00,,,0.00,Wunderground v.1.15,2013-01-19 19:27:00,
2013-01-19 14:33:00,53.9,33.6,30.22,SSW,195,9.0,9.0,46,0.00,,,0.00,Wunderground v.1.15,2013-01-19 19:33:00,
2013-01-19 14:38:00,54.0,34.2,30.22,SSW,207,1.0,9.0,47,0.00,,,0.00,Wunderground v.1.15,2013-01-19 19:38:00,
2013-01-19 14:43:00,54.4,34.0,30.22,SE,125,1.0,9.0,46,0.00,,,0.00,Wunderground v.1.15,2013-01-19 19:43:00,
2013-01-19 14:49:00,54.7,33.8,30.22,South,187,1.0,9.0,45,0.00,,,0.00,Wunderground v.1.15,2013-01-19 19:49:00,
2013-01-19 14:54:00,54.2,33.9,30.22,South,171,7.0,10.0,46,0.00,,,0.00,Wunderground v.1.15,2013-01-19 19:54:00,
2013-01-19 14:59:00,53.7,33.4,30.21,SSW,202,2.0,10.0,46,0.00,,,0.00,Wunderground v.1.15,2013-01-19 19:59:00,
2013-01-19 15:04:00,53.8,34.0,30.21,South,180,2.0,12.0,47,0.00,,,-99.99,WeatherLink 6.0.0,2013-01-19 20:04:00,
2013-01-19 15:09:00,53.7,33.9,30.21,WNW,286,3.0,6.0,47,0.00,,,0.00,Wunderground v.1.15,2013-01-19 20:09:00,
2013-01-19 15:14:00,53.5,33.2,30.21,South,186,3.0,6.0,46,0.00,,,0.00,Wunderground v.1.15,2013-01-19 20:14:00,
2013-01-19 15:20:00,53.2,33.5,30.21,South,175,2.0,2.0,47,0.00,,,0.00,Wunderground v.1.15,2013-01-19 20:20:00,
2013-01-19 15:25:00,53.1,32.3,30.21,South,171,6.0,8.0,45,0.00,,,0.00,Wunderground v.1.15,2013-01-19 20:25:00,
2013-01-19 15:30:00,53.0,33.3,30.21,West,273,2.0,4.0,47,0.00,,,0.00,Wunderground v.1.15,2013-01-19 20:30:00,
2013-01-19 15:35:00,53.0,32.8,30.20,South,175,3.0,7.0,46,0.00,,,0.00,Wunderground v.1.15,2013-01-19 20:35:00,
2013-01-19 15:42:00,52.8,33.1,30.20,SSW,199,0.0,3.0,47,0.00,,,0.00,Wunderground v.1.15,2013-01-19 20:42:00,
2013-01-19 15:48:00,52.9,32.7,30.20,SE,137,4.0,7.0,46,0.00,,,0.00,Wunderground v.1.15,2013-01-19 20:48:00,
2013-01-19 15:53:00,52.9,32.1,30.20,South,190,0.0,9.0,45,0.00,,,0.00,Wunderground v.1.15,2013-01-19 20:53:00,
2013-01-19 15:58:00,52.9,31.6,30.20,SSE,165,2.0,9.0,44,0.00,,,0.00,Wunderground v.1.15,2013-01-19 20:58:00,
2013-01-19 16:04:00,52.9,32.1,30.20,SSW,202,2.0,10.0,45,0.00,,,-99.99,WeatherLink 6.0.0,2013-01-19 21:04:00,
2013-01-19 16:09:00,52.9,32.1,30.19,SE,134,3.0,6.0,45,0.00,,,0.00,Wunderground v.1.15,2013-01-19 21:09:00,
2013-01-19 16:14:00,52.7,31.9,30.19,SW,217,2.0,5.0,45,0.00,,,0.00,Wunderground v.1.15,2013-01-19 21:14:00,
2013-01-19 16:19:00,52.5,32.3,30.19,SSW,205,1.0,5.0,46,0.00,,,0.00,Wunderground v.1.15,2013-01-19 21:19:00,
2013-01-19 16:24:00,52.6,32.9,30.19,SSE,164,1.0,3.0,47,0.00,,,0.00,Wunderground v.1.15,2013-01-19 21:24:00,
2013-01-19 16:29:00,52.6,32.4,30.19,SE,130,0.0,3.0,46,0.00,,,0.00,Wunderground v.1.15,2013-01-19 21:29:00,
2013-01-19 16:35:00,52.3,33.2,30.19,South,186,0.0,3.0,48,0.00,,,0.00,Wunderground v.1.15,2013-01-19 21:35:00,
2013-01-19 16:40:00,52.0,32.4,30.19,South,182,2.0,2.0,47,0.00,,,0.00,Wunderground v.1.15,2013-01-19 21:40:00,
2013-01-19 16:45:00,51.7,32.1,30.18,SSW,202,0.0,4.0,47,0.00,,,0.00,Wunderground v.1.15,2013-01-19 21:45:00,
2013-01-19 16:50:00,51.5,31.9,30.18,SSW,193,0.0,1.0,47,0.00,,,0.00,Wunderground v.1.15,2013-01-19 21:50:00,
2013-01-19 16:55:00,51.1,31.6,30.19,South,188,4.0,4.0,47,0.00,,,0.00,Wunderground v.1.15,2013-01-19 21:55:00,
2013-01-19 17:00:00,50.9,31.9,30.19,South,187,0.0,1.0,48,0.00,,,0.00,Wunderground v.1.15,2013-01-19 22:00:00,
2013-01-19 17:05:00,50.6,32.1,30.19,SSW,197,1.0,4.0,49,0.00,,,0.00,Wunderground v.1.15,2013-01-19 22:05:00,
2013-01-19 17:11:00,50.2,31.8,30.18,SSW,208,1.0,1.0,49,0.00,,,0.00,Wunderground v.1.15,2013-01-19 22:11:00,
2013-01-19 17:17:00,49.6,32.2,30.18,SW,232,0.0,1.0,51,0.00,,,0.00,Wunderground v.1.15,2013-01-19 22:17:00,
2013-01-19 17:22:00,49.2,31.8,30.19,SW,232,0.0,0.0,51,0.00,,,0.00,Wunderground v.1.15,2013-01-19 22:22:00,
2013-01-19 17:27:00,48.9,31.1,30.19,SW,217,0.0,4.0,50,0.00,,,0.00,Wunderground v.1.15,2013-01-19 22:27:00,
2013-01-19 17:32:00,48.7,31.8,30.19,South,176,2.0,5.0,52,0.00,,,0.00,Wunderground v.1.15,2013-01-19 22:32:00,
2013-01-19 17:37:00,48.4,31.1,30.19,SSW,205,1.0,5.0,51,0.00,,,0.00,Wunderground v.1.15,2013-01-19 22:37:00,
2013-01-19 17:42:00,48.2,30.9,30.19,South,172,0.0,1.0,51,0.00,,,0.00,Wunderground v.1.15,2013-01-19 22:42:00,
2013-01-19 17:47:00,47.9,30.6,30.19,SW,227,0.0,2.0,51,0.00,,,0.00,Wunderground v.1.15,2013-01-19 22:47:00,
2013-01-19 17:52:00,47.6,30.8,30.19,SW,226,0.0,1.0,52,0.00,,,0.00,Wunderground v.1.15,2013-01-19 22:52:00,
2013-01-19 17:57:00,47.3,31.0,30.19,South,188,0.0,2.0,53,0.00,,,0.00,Wunderground v.1.15,2013-01-19 22:57:00,
2013-01-19 18:02:00,47.0,30.7,30.19,South,190,0.0,0.0,53,0.00,,,0.00,Wunderground v.1.15,2013-01-19 23:02:00,
2013-01-19 18:08:00,46.7,30.5,30.19,South,190,0.0,2.0,53,0.00,,,0.00,Wunderground v.1.15,2013-01-19 23:08:00,
2013-01-19 18:13:00,46.5,30.3,30.19,South,173,0.0,1.0,53,0.00,,,0.00,Wunderground v.1.15,2013-01-19 23:13:00,
2013-01-19 18:18:00,46.2,30.5,30.19,South,174,0.0,1.0,54,0.00,,,0.00,Wunderground v.1.15,2013-01-19 23:18:00,
2013-01-19 18:23:00,45.9,30.2,30.19,South,174,0.0,0.0,54,0.00,,,0.00,Wunderground v.1.15,2013-01-19 23:23:00,
2013-01-19 18:28:00,45.5,29.8,30.20,South,174,0.0,0.0,54,0.00,,,0.00,Wunderground v.1.15,2013-01-19 23:28:00,
2013-01-19 18:33:00,45.3,30.5,30.20,South,180,0.0,2.0,56,0.00,,,-99.99,WeatherLink 6.0.0,2013-01-19 23:33:00,
2013-01-19 18:38:00,44.5,31.1,30.20,South,174,0.0,0.0,59,0.00,,,0.00,Wunderground v.1.15,2013-01-19 23:38:00,
2013-01-19 18:44:00,43.9,31.3,30.21,South,174,0.0,0.0,61,0.00,,,0.00,Wunderground v.1.15,2013-01-19 23:44:00,
2013-01-19 18:49:00,43.4,30.8,30.21,South,173,0.0,1.0,61,0.00,,,0.00,Wunderground v.1.15,2013-01-19 23:49:00,
2013-01-19 18:54:00,43.1,30.6,30.21,South,174,0.0,0.0,61,0.00,,,0.00,Wunderground v.1.15,2013-01-19 23:54:00,
2013-01-19 19:00:00,42.7,31.0,30.21,South,173,0.0,0.0,63,0.00,,,0.00,Wunderground v.1.15,2013-01-20 00:00:00,
2013-01-19 19:05:00,42.4,30.7,30.21,South,174,0.0,0.0,63,0.00,,,0.00,Wunderground v.1.15,2013-01-20 00:05:00,
2013-01-19 19:10:00,41.9,31.0,30.21,South,174,0.0,0.0,65,0.00,,,0.00,Wunderground v.1.15,2013-01-20 00:10:00,
2013-01-19 19:15:00,41.6,30.3,30.20,South,173,0.0,0.0,64,0.00,,,0.00,Wunderground v.1.15,2013-01-20 00:15:00,
2013-01-19 19:20:00,41.4,30.1,30.21,SE,139,0.0,0.0,64,0.00,,,0.00,Wunderground v.1.15,2013-01-20 00:20:00,
2013-01-19 19:25:00,41.1,30.6,30.21,SE,139,0.0,0.0,66,0.00,,,0.00,Wunderground v.1.15,2013-01-20 00:25:00,
2013-01-19 19:30:00,41.0,30.5,30.21,SE,139,0.0,0.0,66,0.00,,,0.00,Wunderground v.1.15,2013-01-20 00:30:00,
2013-01-19 19:36:00,40.9,30.4,30.21,SE,138,0.0,0.0,66,0.00,,,0.00,Wunderground v.1.15,2013-01-20 00:36:00,
2013-01-19 19:41:00,40.9,30.4,30.21,SE,138,0.0,0.0,66,0.00,,,0.00,Wunderground v.1.15,2013-01-20 00:41:00,
2013-01-19 19:46:00,40.9,30.0,30.20,SE,138,0.0,0.0,65,0.00,,,0.00,Wunderground v.1.15,2013-01-20 00:46:00,
2013-01-19 19:51:00,41.3,30.0,30.21,South,172,0.0,1.0,64,0.00,,,0.00,Wunderground v.1.15,2013-01-20 00:51:00,
2013-01-19 19:56:00,41.6,30.3,30.20,South,173,0.0,1.0,64,0.00,,,0.00,Wunderground v.1.15,2013-01-20 00:56:00,
2013-01-19 20:01:00,41.8,30.1,30.20,South,172,0.0,0.0,63,0.00,,,0.00,Wunderground v.1.15,2013-01-20 01:01:00,
2013-01-19 20:07:00,41.6,30.3,30.19,South,173,0.0,0.0,64,0.00,,,0.00,Wunderground v.1.15,2013-01-20 01:07:00,
2013-01-19 20:12:00,41.3,30.0,30.20,South,173,0.0,1.0,64,0.00,,,0.00,Wunderground v.1.15,2013-01-20 01:12:00,
2013-01-19 20:17:00,41.4,30.1,30.19,SE,136,0.0,1.0,64,0.00,,,0.00,Wunderground v.1.15,2013-01-20 01:17:00,
2013-01-19 20:22:00,41.4,29.7,30.19,SE,136,0.0,0.0,63,0.00,,,0.00,Wunderground v.1.15,2013-01-20 01:22:00,
2013-01-19 20:27:00,41.4,29.7,30.19,SE,136,0.0,0.0,63,0.00,,,0.00,Wunderground v.1.15,2013-01-20 01:27:00,
2013-01-19 20:32:00,41.7,29.6,30.19,SW,218,0.0,2.0,62,0.00,,,0.00,Wunderground v.1.15,2013-01-20 01:32:00,
2013-01-19 20:37:00,42.0,29.9,30.18,South,169,0.0,3.0,62,0.00,,,0.00,Wunderground v.1.15,2013-01-20 01:37:00,
2013-01-19 20:42:00,42.0,29.9,30.18,South,169,0.0,1.0,62,0.00,,,0.00,Wunderground v.1.15,2013-01-20 01:42:00,
2013-01-19 20:47:00,42.1,29.2,30.18,South,169,0.0,2.0,60,0.00,,,0.00,Wunderground v.1.15,2013-01-20 01:47:00,
2013-01-19 20:52:00,42.4,29.1,30.18,South,169,0.0,0.0,59,0.00,,,0.00,Wunderground v.1.15,2013-01-20 01:52:00,
2013-01-19 20:57:00,42.7,28.9,30.18,South,169,0.0,1.0,58,0.00,,,0.00,Wunderground v.1.15,2013-01-20 01:57:00,
2013-01-19 21:02:00,42.8,29.0,30.16,South,169,0.0,0.0,58,0.00,,,0.00,Wunderground v.1.15,2013-01-20 02:02:00,
2013-01-19 21:07:00,42.6,29.7,30.16,South,169,0.0,1.0,60,0.00,,,0.00,Wunderground v.1.15,2013-01-20 02:07:00,
2013-01-19 21:12:00,42.2,29.7,30.16,South,171,0.0,1.0,61,0.00,,,0.00,Wunderground v.1.15,2013-01-20 02:12:00,
2013-01-19 21:17:00,41.6,29.9,30.15,South,171,1.0,2.0,63,0.00,,,0.00,Wunderground v.1.15,2013-01-20 02:17:00,
2013-01-19 21:23:00,41.2,29.5,30.15,South,171,0.0,1.0,63,0.00,,,0.00,Wunderground v.1.15,2013-01-20 02:23:00,
2013-01-19 21:28:00,41.0,29.7,30.15,South,172,0.0,2.0,64,0.00,,,0.00,Wunderground v.1.15,2013-01-20 02:28:00,
2013-01-19 21:30:00,41.1,29.5,30.15,South,180,0.0,2.0,63,0.00,,,-99.99,WeatherLink 6.0.0,2013-01-20 02:30:00,
2013-01-19 21:34:00,41.2,29.2,30.16,South,171,0.0,1.0,62,0.00,,,0.00,Wunderground v.1.15,2013-01-20 02:34:00,
2013-01-19 21:39:00,41.5,29.8,30.16,South,172,0.0,1.0,63,0.00,,,0.00,Wunderground v.1.15,2013-01-20 02:39:00,
2013-01-19 21:44:00,41.3,29.3,30.16,South,171,1.0,1.0,62,0.00,,,0.00,Wunderground v.1.15,2013-01-20 02:44:00,
2013-01-19 21:49:00,41.4,29.3,30.16,South,171,0.0,1.0,62,0.00,,,0.00,Wunderground v.1.15,2013-01-20 02:49:00,
2013-01-19 21:54:00,41.3,30.4,30.16,South,172,0.0,0.0,65,0.00,,,0.00,Wunderground v.1.15,2013-01-20 02:54:00,
2013-01-19 22:00:00,40.7,29.5,30.15,South,171,0.0,1.0,64,0.00,,,0.00,Wunderground v.1.15,2013-01-20 03:00:00,
2013-01-19 22:05:00,40.3,30.6,30.15,South,172,0.0,0.0,68,0.00,,,0.00,Wunderground v.1.15,2013-01-20 03:05:00,
2013-01-19 22:10:00,39.8,30.8,30.15,South,172,0.0,0.0,70,0.00,,,0.00,Wunderground v.1.15,2013-01-20 03:10:00,
2013-01-19 22:15:00,39.3,30.7,30.15,South,171,0.0,0.0,71,0.00,,,0.00,Wunderground v.1.15,2013-01-20 03:15:00,
2013-01-19 22:20:00,38.7,30.1,30.14,South,172,0.0,0.0,71,0.00,,,0.00,Wunderground v.1.15,2013-01-20 03:20:00,
2013-01-19 22:25:00,38.4,29.8,30.14,South,172,0.0,0.0,71,0.00,,,0.00,Wunderground v.1.15,2013-01-20 03:25:00,
2013-01-19 22:30:00,38.6,32.0,30.14,South,171,0.0,0.0,77,0.00,,,0.00,Wunderground v.1.15,2013-01-20 03:30:00,
2013-01-19 22:36:00,37.5,30.6,30.15,South,172,0.0,0.0,76,0.00,,,0.00,Wunderground v.1.15,2013-01-20 03:36:00,
2013-01-19 22:42:00,36.3,30.1,30.15,South,172,0.0,1.0,78,0.00,,,0.00,Wunderground v.1.15,2013-01-20 03:42:00,
2013-01-19 22:47:00,35.6,30.0,30.14,South,172,0.0,1.0,80,0.00,,,0.00,Wunderground v.1.15,2013-01-20 03:47:00,
2013-01-19 22:52:00,35.1,30.5,30.15,South,172,0.0,0.0,83,0.00,,,0.00,Wunderground v.1.15,2013-01-20 03:52:00,
2013-01-19 22:58:00,35.0,30.9,30.15,South,172,0.0,0.0,85,0.00,,,0.00,Wunderground v.1.15,2013-01-20 03:58:00,
2013-01-19 23:03:00,34.8,29.6,30.14,South,172,0.0,0.0,81,0.00,,,0.00,Wunderground v.1.15,2013-01-20 04:03:00,
2013-01-19 23:08:00,34.9,29.0,30.14,South,172,0.0,0.0,79,0.00,,,0.00,Wunderground v.1.15,2013-01-20 04:08:00,
2013-01-19 23:13:00,35.3,29.4,30.13,South,172,0.0,0.0,79,0.00,,,0.00,Wunderground v.1.15,2013-01-20 04:13:00,
2013-01-19 23:18:00,35.7,29.8,30.13,South,172,0.0,0.0,79,0.00,,,0.00,Wunderground v.1.15,2013-01-20 04:18:00,
2013-01-19 23:23:00,35.9,29.7,30.13,South,172,0.0,0.0,78,0.00,,,0.00,Wunderground v.1.15,2013-01-20 04:23:00,
2013-01-19 23:28:00,36.4,32.9,30.13,South,172,0.0,0.0,87,0.00,,,0.00,Wunderground v.1.15,2013-01-20 04:28:00,
2013-01-19 23:33:00,36.5,31.2,30.13,South,172,0.0,0.0,81,0.00,,,0.00,Wunderground v.1.15,2013-01-20 04:33:00,
2013-01-19 23:38:00,36.1,31.1,30.12,South,172,0.0,0.0,82,0.00,,,0.00,Wunderground v.1.15,2013-01-20 04:38:00,
2013-01-19 23:43:00,35.6,31.2,30.12,South,172,0.0,0.0,84,0.00,,,0.00,Wunderground v.1.15,2013-01-20 04:43:00,
2013-01-19 23:49:00,35.2,30.3,30.13,South,172,0.0,0.0,82,0.00,,,0.00,Wunderground v.1.15,2013-01-20 04:49:00,
2013-01-19 23:53:00,35.0,30.1,30.12,South,172,0.0,0.0,82,0.00,,,0.00,Wunderground v.1.15,2013-01-20 04:53:00,
2013-01-19 23:59:00,34.8,29.9,30.12,South,172,0.0,0.0,82,0.00,,,0.00,Wunderground v.1.15,2013-01-20 04:59:00,